sensor_id;sensor_type;location;lat;lon;timestamp;temperature;humidity
14192;DHT22;7177;48.572;7.838;2023-04-01T00:02:16;9.60;99.90
14192;DHT22;7177;48.572;7.838;2023-04-01T00:04:42;9.60;99.90
14192;DHT22;7177;48.572;7.838;2023-04-01T00:07:08;9.60;99.90
14192;DHT22;7177;48.572;7.838;2023-04-01T00:09:34;9.60;99.90
14192;DHT22;7177;48.572;7.838;2023-04-01T00:12:00;9.70;99.90
14192;DHT22;7177;48.572;7.838;2023-04-01T00:14:26;9.70;99.90
14192;DHT22;7177;48.572;7.838;2023-04-01T00:16:52;9.70;99.90
14192;DHT22;7177;48.572;7.838;2023-04-01T00:19:18;9.70;99.90
14192;DHT22;7177;48.572;7.838;2023-04-01T00:21:43;9.70;99.90
14192;DHT22;7177;48.572;7.838;2023-04-01T00:24:09;9.70;99.90
14192;DHT22;7177;48.572;7.838;2023-04-01T00:26:35;9.70;99.90
14192;DHT22;7177;48.572;7.838;2023-04-01T00:29:00;9.70;99.90
14192;DHT22;7177;48.572;7.838;2023-04-01T00:31:26;9.80;99.90
14192;DHT22;7177;48.572;7.838;2023-04-01T00:33:52;9.80;99.90
14192;DHT22;7177;48.572;7.838;2023-04-01T00:36:20;9.80;99.90
14192;DHT22;7177;48.572;7.838;2023-04-01T00:38:46;9.80;99.90
14192;DHT22;7177;48.572;7.838;2023-04-01T00:41:14;9.70;99.90
14192;DHT22;7177;48.572;7.838;2023-04-01T00:43:46;9.70;99.90
14192;DHT22;7177;48.572;7.838;2023-04-01T00:46:11;9.70;99.90
14192;DHT22;7177;48.572;7.838;2023-04-01T00:48:40;9.60;99.90
14192;DHT22;7177;48.572;7.838;2023-04-01T00:51:10;9.60;99.90
14192;DHT22;7177;48.572;7.838;2023-04-01T00:53:40;9.50;99.90
14192;DHT22;7177;48.572;7.838;2023-04-01T00:56:11;9.50;99.90
14192;DHT22;7177;48.572;7.838;2023-04-01T00:58:41;9.50;99.90
14192;DHT22;7177;48.572;7.838;2023-04-01T01:01:09;9.40;99.90
14192;DHT22;7177;48.572;7.838;2023-04-01T01:03:35;9.40;99.90
14192;DHT22;7177;48.572;7.838;2023-04-01T01:09:11;9.40;99.90
14192;DHT22;7177;48.572;7.838;2023-04-01T01:11:43;9.40;99.90
14192;DHT22;7177;48.572;7.838;2023-04-01T01:14:37;9.30;99.90
14192;DHT22;7177;48.572;7.838;2023-04-01T01:25:33;9.30;99.90
14192;DHT22;7177;48.572;7.838;2023-04-01T01:28:31;9.20;99.90
14192;DHT22;7177;48.572;7.838;2023-04-01T01:31:23;9.20;99.90
14192;DHT22;7177;48.572;7.838;2023-04-01T01:36:17;9.10;99.90
14192;DHT22;7177;48.572;7.838;2023-04-01T01:38:45;9.10;99.90
14192;DHT22;7177;48.572;7.838;2023-04-01T01:41:14;9.00;99.90
14192;DHT22;7177;48.572;7.838;2023-04-01T01:43:43;9.00;99.90
14192;DHT22;7177;48.572;7.838;2023-04-01T01:46:16;9.00;99.90
14192;DHT22;7177;48.572;7.838;2023-04-01T01:48:43;8.90;99.90
14192;DHT22;7177;48.572;7.838;2023-04-01T01:51:10;8.90;99.90
14192;DHT22;7177;48.572;7.838;2023-04-01T01:53:36;8.90;99.90
14192;DHT22;7177;48.572;7.838;2023-04-01T01:56:02;8.80;99.90
14192;DHT22;7177;48.572;7.838;2023-04-01T01:58:32;8.80;99.90
14192;DHT22;7177;48.572;7.838;2023-04-01T02:01:03;8.80;99.90
14192;DHT22;7177;48.572;7.838;2023-04-01T02:03:34;8.80;99.90
14192;DHT22;7177;48.572;7.838;2023-04-01T02:06:02;8.80;99.90
14192;DHT22;7177;48.572;7.838;2023-04-01T02:08:35;8.80;99.90
14192;DHT22;7177;48.572;7.838;2023-04-01T02:11:06;8.80;99.90
14192;DHT22;7177;48.572;7.838;2023-04-01T02:13:53;8.80;99.90
14192;DHT22;7177;48.572;7.838;2023-04-01T02:16:32;8.80;99.90
14192;DHT22;7177;48.572;7.838;2023-04-01T02:19:00;8.70;99.90
14192;DHT22;7177;48.572;7.838;2023-04-01T02:21:29;8.70;99.90
14192;DHT22;7177;48.572;7.838;2023-04-01T02:23:58;8.70;99.90
14192;DHT22;7177;48.572;7.838;2023-04-01T02:26:25;8.70;99.90
14192;DHT22;7177;48.572;7.838;2023-04-01T02:28:53;8.70;99.90
14192;DHT22;7177;48.572;7.838;2023-04-01T02:31:19;8.50;99.90
14192;DHT22;7177;48.572;7.838;2023-04-01T02:33:46;8.50;99.90
14192;DHT22;7177;48.572;7.838;2023-04-01T02:36:13;8.50;99.90
14192;DHT22;7177;48.572;7.838;2023-04-01T02:38:41;8.50;99.90
14192;DHT22;7177;48.572;7.838;2023-04-01T02:41:06;8.50;99.90
14192;DHT22;7177;48.572;7.838;2023-04-01T02:43:32;8.50;99.90
14192;DHT22;7177;48.572;7.838;2023-04-01T02:45:58;8.50;99.90
14192;DHT22;7177;48.572;7.838;2023-04-01T02:48:23;8.50;99.90
14192;DHT22;7177;48.572;7.838;2023-04-01T02:50:49;8.50;99.90
14192;DHT22;7177;48.572;7.838;2023-04-01T02:53:15;8.50;99.90
14192;DHT22;7177;48.572;7.838;2023-04-01T02:55:41;8.50;99.90
14192;DHT22;7177;48.572;7.838;2023-04-01T02:58:06;8.50;99.90
14192;DHT22;7177;48.572;7.838;2023-04-01T03:00:32;8.60;99.90
14192;DHT22;7177;48.572;7.838;2023-04-01T03:02:57;8.60;99.90
14192;DHT22;7177;48.572;7.838;2023-04-01T03:05:23;8.60;99.90
14192;DHT22;7177;48.572;7.838;2023-04-01T03:07:49;8.60;99.90
14192;DHT22;7177;48.572;7.838;2023-04-01T03:10:15;8.70;99.90
14192;DHT22;7177;48.572;7.838;2023-04-01T03:12:40;8.70;99.90
14192;DHT22;7177;48.572;7.838;2023-04-01T03:15:06;8.70;99.90
14192;DHT22;7177;48.572;7.838;2023-04-01T03:17:32;8.70;99.90
14192;DHT22;7177;48.572;7.838;2023-04-01T03:22:23;8.70;99.90
14192;DHT22;7177;48.572;7.838;2023-04-01T03:24:49;8.80;99.90
14192;DHT22;7177;48.572;7.838;2023-04-01T03:27:15;8.80;99.90
14192;DHT22;7177;48.572;7.838;2023-04-01T03:29:41;8.80;99.90
14192;DHT22;7177;48.572;7.838;2023-04-01T03:32:06;8.80;99.90
14192;DHT22;7177;48.572;7.838;2023-04-01T03:34:32;8.80;99.90
14192;DHT22;7177;48.572;7.838;2023-04-01T03:36:58;8.80;99.90
14192;DHT22;7177;48.572;7.838;2023-04-01T03:39:24;8.90;99.90
14192;DHT22;7177;48.572;7.838;2023-04-01T03:41:50;8.90;99.90
14192;DHT22;7177;48.572;7.838;2023-04-01T03:44:16;8.90;99.90
14192;DHT22;7177;48.572;7.838;2023-04-01T03:46:41;8.90;99.90
14192;DHT22;7177;48.572;7.838;2023-04-01T03:49:11;8.90;99.90
14192;DHT22;7177;48.572;7.838;2023-04-01T03:51:41;8.90;99.90
14192;DHT22;7177;48.572;7.838;2023-04-01T03:54:08;8.90;99.90
14192;DHT22;7177;48.572;7.838;2023-04-01T03:56:34;8.90;99.90
14192;DHT22;7177;48.572;7.838;2023-04-01T03:59:05;9.00;99.90
14192;DHT22;7177;48.572;7.838;2023-04-01T04:01:31;9.00;99.90
14192;DHT22;7177;48.572;7.838;2023-04-01T04:03:57;9.00;99.90
14192;DHT22;7177;48.572;7.838;2023-04-01T04:06:23;9.00;99.90
14192;DHT22;7177;48.572;7.838;2023-04-01T04:08:50;9.00;99.90
14192;DHT22;7177;48.572;7.838;2023-04-01T04:11:16;9.00;99.90
14192;DHT22;7177;48.572;7.838;2023-04-01T04:13:42;9.00;99.90
14192;DHT22;7177;48.572;7.838;2023-04-01T04:16:09;9.00;99.90
14192;DHT22;7177;48.572;7.838;2023-04-01T04:18:35;9.00;99.90
14192;DHT22;7177;48.572;7.838;2023-04-01T04:21:02;9.00;99.90
14192;DHT22;7177;48.572;7.838;2023-04-01T04:23:27;9.00;99.90
14192;DHT22;7177;48.572;7.838;2023-04-01T04:25:56;9.00;99.90
14192;DHT22;7177;48.572;7.838;2023-04-01T04:28:22;9.00;99.90
14192;DHT22;7177;48.572;7.838;2023-04-01T04:30:47;9.00;99.90
14192;DHT22;7177;48.572;7.838;2023-04-01T04:33:13;9.00;99.90
14192;DHT22;7177;48.572;7.838;2023-04-01T04:35:38;9.00;99.90
14192;DHT22;7177;48.572;7.838;2023-04-01T04:38:04;9.00;99.90
14192;DHT22;7177;48.572;7.838;2023-04-01T04:40:29;9.00;99.90
14192;DHT22;7177;48.572;7.838;2023-04-01T04:42:55;9.10;99.90
14192;DHT22;7177;48.572;7.838;2023-04-01T04:45:20;9.00;99.90
14192;DHT22;7177;48.572;7.838;2023-04-01T04:47:46;9.00;99.90
14192;DHT22;7177;48.572;7.838;2023-04-01T04:50:11;9.00;99.90
14192;DHT22;7177;48.572;7.838;2023-04-01T04:52:38;9.00;99.90
14192;DHT22;7177;48.572;7.838;2023-04-01T04:55:04;8.90;99.90
14192;DHT22;7177;48.572;7.838;2023-04-01T04:57:29;8.90;99.90
14192;DHT22;7177;48.572;7.838;2023-04-01T04:59:55;8.90;99.90
14192;DHT22;7177;48.572;7.838;2023-04-01T05:02:21;8.90;99.90
14192;DHT22;7177;48.572;7.838;2023-04-01T05:04:46;8.90;99.90
14192;DHT22;7177;48.572;7.838;2023-04-01T05:07:12;8.90;99.90
14192;DHT22;7177;48.572;7.838;2023-04-01T05:09:37;8.90;99.90
14192;DHT22;7177;48.572;7.838;2023-04-01T05:12:03;8.90;99.90
14192;DHT22;7177;48.572;7.838;2023-04-01T05:16:54;8.90;99.90
14192;DHT22;7177;48.572;7.838;2023-04-01T05:19:20;8.90;99.90
14192;DHT22;7177;48.572;7.838;2023-04-01T05:21:46;8.80;99.90
14192;DHT22;7177;48.572;7.838;2023-04-01T05:24:11;8.80;99.90
14192;DHT22;7177;48.572;7.838;2023-04-01T05:26:37;8.80;99.90
14192;DHT22;7177;48.572;7.838;2023-04-01T05:29:04;8.90;99.90
14192;DHT22;7177;48.572;7.838;2023-04-01T05:31:30;8.90;99.90
14192;DHT22;7177;48.572;7.838;2023-04-01T05:33:55;8.80;99.90
14192;DHT22;7177;48.572;7.838;2023-04-01T05:36:21;8.70;99.90
14192;DHT22;7177;48.572;7.838;2023-04-01T05:38:47;8.80;99.90
14192;DHT22;7177;48.572;7.838;2023-04-01T05:41:13;8.80;99.90
14192;DHT22;7177;48.572;7.838;2023-04-01T05:43:40;8.70;99.90
14192;DHT22;7177;48.572;7.838;2023-04-01T05:46:06;8.70;99.90
14192;DHT22;7177;48.572;7.838;2023-04-01T05:48:33;8.70;99.90
14192;DHT22;7177;48.572;7.838;2023-04-01T05:51:00;8.60;99.90
14192;DHT22;7177;48.572;7.838;2023-04-01T05:53:25;8.70;99.90
14192;DHT22;7177;48.572;7.838;2023-04-01T05:55:51;8.60;99.90
14192;DHT22;7177;48.572;7.838;2023-04-01T05:58:17;8.70;99.90
14192;DHT22;7177;48.572;7.838;2023-04-01T06:00:43;8.70;99.90
14192;DHT22;7177;48.572;7.838;2023-04-01T06:03:08;8.70;99.90
14192;DHT22;7177;48.572;7.838;2023-04-01T06:05:42;8.70;99.90
14192;DHT22;7177;48.572;7.838;2023-04-01T06:08:17;8.70;99.90
14192;DHT22;7177;48.572;7.838;2023-04-01T06:13:30;8.70;99.90
14192;DHT22;7177;48.572;7.838;2023-04-01T06:16:22;8.70;99.90
14192;DHT22;7177;48.572;7.838;2023-04-01T06:19:13;8.70;99.90
14192;DHT22;7177;48.572;7.838;2023-04-01T06:27:24;8.90;99.90
14192;DHT22;7177;48.572;7.838;2023-04-01T06:38:20;9.20;99.90
14192;DHT22;7177;48.572;7.838;2023-04-01T06:43:49;9.00;99.90
14192;DHT22;7177;48.572;7.838;2023-04-01T06:54:35;9.10;99.90
14192;DHT22;7177;48.572;7.838;2023-04-01T06:57:29;9.10;99.90
14192;DHT22;7177;48.572;7.838;2023-04-01T06:59:57;9.10;99.90
14192;DHT22;7177;48.572;7.838;2023-04-01T07:02:47;9.10;99.90
14192;DHT22;7177;48.572;7.838;2023-04-01T07:05:19;9.10;99.90
14192;DHT22;7177;48.572;7.838;2023-04-01T07:07:49;9.10;99.90
14192;DHT22;7177;48.572;7.838;2023-04-01T07:12:56;9.00;99.90
14192;DHT22;7177;48.572;7.838;2023-04-01T07:15:43;9.10;99.90
14192;DHT22;7177;48.572;7.838;2023-04-01T07:18:32;9.10;99.90
14192;DHT22;7177;48.572;7.838;2023-04-01T07:21:00;9.10;99.90
14192;DHT22;7177;48.572;7.838;2023-04-01T07:23:31;9.10;99.90
14192;DHT22;7177;48.572;7.838;2023-04-01T07:26:11;9.30;99.90
14192;DHT22;7177;48.572;7.838;2023-04-01T07:28:40;9.30;99.90
14192;DHT22;7177;48.572;7.838;2023-04-01T07:34:12;9.40;99.90
14192;DHT22;7177;48.572;7.838;2023-04-01T07:36:47;9.40;99.90
14192;DHT22;7177;48.572;7.838;2023-04-01T07:53:27;9.10;99.90
14192;DHT22;7177;48.572;7.838;2023-04-01T07:56:12;9.10;99.90
14192;DHT22;7177;48.572;7.838;2023-04-01T07:58:56;9.10;99.90
14192;DHT22;7177;48.572;7.838;2023-04-01T08:01:31;9.10;99.90
14192;DHT22;7177;48.572;7.838;2023-04-01T08:07:20;9.10;99.90
14192;DHT22;7177;48.572;7.838;2023-04-01T08:10:12;9.10;99.90
14192;DHT22;7177;48.572;7.838;2023-04-01T08:12:47;9.00;99.90
14192;DHT22;7177;48.572;7.838;2023-04-01T08:15:47;9.00;99.90
14192;DHT22;7177;48.572;7.838;2023-04-01T08:20:50;9.00;99.90
14192;DHT22;7177;48.572;7.838;2023-04-01T08:23:24;9.00;99.90
14192;DHT22;7177;48.572;7.838;2023-04-01T08:28:57;9.00;99.90
14192;DHT22;7177;48.572;7.838;2023-04-01T08:32:08;9.10;99.90
14192;DHT22;7177;48.572;7.838;2023-04-01T08:34:50;9.10;99.90
14192;DHT22;7177;48.572;7.838;2023-04-01T08:37:25;9.10;99.90
14192;DHT22;7177;48.572;7.838;2023-04-01T08:40:00;9.10;99.90
14192;DHT22;7177;48.572;7.838;2023-04-01T08:45:56;9.10;99.90
14192;DHT22;7177;48.572;7.838;2023-04-01T08:48:36;9.10;99.90
14192;DHT22;7177;48.572;7.838;2023-04-01T08:54:19;9.10;99.90
14192;DHT22;7177;48.572;7.838;2023-04-01T08:59:25;9.00;99.90
14192;DHT22;7177;48.572;7.838;2023-04-01T09:05:12;9.10;99.90
14192;DHT22;7177;48.572;7.838;2023-04-01T09:13:30;9.20;99.90
14192;DHT22;7177;48.572;7.838;2023-04-01T09:16:20;9.20;99.90
14192;DHT22;7177;48.572;7.838;2023-04-01T09:24:58;9.30;99.90
14192;DHT22;7177;48.572;7.838;2023-04-01T09:27:28;9.30;99.90
14192;DHT22;7177;48.572;7.838;2023-04-01T09:35:46;9.40;99.90
14192;DHT22;7177;48.572;7.838;2023-04-01T09:38:49;9.30;99.90
14192;DHT22;7177;48.572;7.838;2023-04-01T09:41:30;9.40;99.90
14192;DHT22;7177;48.572;7.838;2023-04-01T09:44:03;9.40;99.90
14192;DHT22;7177;48.572;7.838;2023-04-01T09:46:45;9.40;99.90
14192;DHT22;7177;48.572;7.838;2023-04-01T09:57:52;9.50;99.90
14192;DHT22;7177;48.572;7.838;2023-04-01T10:06:16;9.50;99.90
14192;DHT22;7177;48.572;7.838;2023-04-01T10:09:01;9.50;99.90
14192;DHT22;7177;48.572;7.838;2023-04-01T10:20:22;9.60;99.90
14192;DHT22;7177;48.572;7.838;2023-04-01T10:29:02;9.70;99.90
14192;DHT22;7177;48.572;7.838;2023-04-01T10:43:24;9.70;99.90
14192;DHT22;7177;48.572;7.838;2023-04-01T10:54:36;9.90;99.90
14192;DHT22;7177;48.572;7.838;2023-04-01T11:00:13;9.90;99.90
14192;DHT22;7177;48.572;7.838;2023-04-01T11:03:18;9.90;99.90
14192;DHT22;7177;48.572;7.838;2023-04-01T11:09:26;10.00;99.90
14192;DHT22;7177;48.572;7.838;2023-04-01T11:15:09;10.20;99.90
14192;DHT22;7177;48.572;7.838;2023-04-01T11:23:22;10.30;99.90
14192;DHT22;7177;48.572;7.838;2023-04-01T11:39:37;10.50;99.90
14192;DHT22;7177;48.572;7.838;2023-04-01T11:45:03;10.50;99.90
14192;DHT22;7177;48.572;7.838;2023-04-01T11:51:03;10.60;99.90
14192;DHT22;7177;48.572;7.838;2023-04-01T12:04:55;10.40;99.90
14192;DHT22;7177;48.572;7.838;2023-04-01T12:10:17;10.40;99.90
14192;DHT22;7177;48.572;7.838;2023-04-01T12:15:23;10.40;99.90
14192;DHT22;7177;48.572;7.838;2023-04-01T12:29:03;10.40;99.90
14192;DHT22;7177;48.572;7.838;2023-04-01T12:53:53;10.40;99.90
14192;DHT22;7177;48.572;7.838;2023-04-01T13:01:59;10.50;99.90
14192;DHT22;7177;48.572;7.838;2023-04-01T13:20:43;10.70;99.90
14192;DHT22;7177;48.572;7.838;2023-04-01T13:26:53;10.70;99.90
14192;DHT22;7177;48.572;7.838;2023-04-01T13:29:25;10.70;99.90
14192;DHT22;7177;48.572;7.838;2023-04-01T13:32:17;10.70;99.90
14192;DHT22;7177;48.572;7.838;2023-04-01T13:40:43;10.90;99.90
14192;DHT22;7177;48.572;7.838;2023-04-01T13:43:31;10.90;99.90
14192;DHT22;7177;48.572;7.838;2023-04-01T13:54:45;11.10;99.90
14192;DHT22;7177;48.572;7.838;2023-04-01T14:09:03;11.40;99.90
14192;DHT22;7177;48.572;7.838;2023-04-01T14:12:12;11.40;99.90
14192;DHT22;7177;48.572;7.838;2023-04-01T14:17:16;11.30;99.90
14192;DHT22;7177;48.572;7.838;2023-04-01T14:26:02;11.30;99.90
14192;DHT22;7177;48.572;7.838;2023-04-01T14:28:44;11.30;99.90
14192;DHT22;7177;48.572;7.838;2023-04-01T14:31:17;11.30;99.90
14192;DHT22;7177;48.572;7.838;2023-04-01T14:34:15;11.30;99.90
14192;DHT22;7177;48.572;7.838;2023-04-01T14:40:12;11.40;99.90
14192;DHT22;7177;48.572;7.838;2023-04-01T14:48:27;11.60;99.90
14192;DHT22;7177;48.572;7.838;2023-04-01T14:51:02;11.60;99.90
14192;DHT22;7177;48.572;7.838;2023-04-01T14:53:31;11.60;99.90
14192;DHT22;7177;48.572;7.838;2023-04-01T14:56:00;11.60;99.90
14192;DHT22;7177;48.572;7.838;2023-04-01T14:58:47;11.70;99.90
14192;DHT22;7177;48.572;7.838;2023-04-01T15:07:01;11.80;99.90
14192;DHT22;7177;48.572;7.838;2023-04-01T15:17:48;11.80;99.90
14192;DHT22;7177;48.572;7.838;2023-04-01T15:20:28;11.80;99.90
14192;DHT22;7177;48.572;7.838;2023-04-01T15:33:36;11.90;99.90
14192;DHT22;7177;48.572;7.838;2023-04-01T15:36:16;11.90;99.90
14192;DHT22;7177;48.572;7.838;2023-04-01T15:39:04;11.90;99.90
14192;DHT22;7177;48.572;7.838;2023-04-01T15:41:42;12.00;99.90
14192;DHT22;7177;48.572;7.838;2023-04-01T16:02:54;11.70;99.90
14192;DHT22;7177;48.572;7.838;2023-04-01T16:05:35;11.60;99.90
14192;DHT22;7177;48.572;7.838;2023-04-01T16:16:26;11.50;99.90
14192;DHT22;7177;48.572;7.838;2023-04-01T16:24:33;11.50;99.90
14192;DHT22;7177;48.572;7.838;2023-04-01T16:27:18;11.50;99.90
14192;DHT22;7177;48.572;7.838;2023-04-01T16:32:46;11.60;99.90
14192;DHT22;7177;48.572;7.838;2023-04-01T16:37:52;11.60;99.90
14192;DHT22;7177;48.572;7.838;2023-04-01T16:40:41;11.60;99.90
14192;DHT22;7177;48.572;7.838;2023-04-01T16:46:05;11.70;99.90
14192;DHT22;7177;48.572;7.838;2023-04-01T16:48:54;11.60;99.90
14192;DHT22;7177;48.572;7.838;2023-04-01T16:51:23;11.60;99.90
14192;DHT22;7177;48.572;7.838;2023-04-01T16:59:46;10.60;99.90
14192;DHT22;7177;48.572;7.838;2023-04-01T17:02:17;10.40;99.90
14192;DHT22;7177;48.572;7.838;2023-04-01T17:04:59;10.20;99.90
14192;DHT22;7177;48.572;7.838;2023-04-01T17:21:47;9.60;99.90
14192;DHT22;7177;48.572;7.838;2023-04-01T17:32:56;9.70;99.90
14192;DHT22;7177;48.572;7.838;2023-04-01T17:52:21;9.90;99.90
14192;DHT22;7177;48.572;7.838;2023-04-01T17:55:41;9.90;99.90
14192;DHT22;7177;48.572;7.838;2023-04-01T17:58:31;9.90;99.90
14192;DHT22;7177;48.572;7.838;2023-04-01T18:01:16;9.80;99.90
14192;DHT22;7177;48.572;7.838;2023-04-01T18:03:55;9.80;99.90
14192;DHT22;7177;48.572;7.838;2023-04-01T18:14:47;9.60;99.90
14192;DHT22;7177;48.572;7.838;2023-04-01T18:17:21;9.60;99.90
14192;DHT22;7177;48.572;7.838;2023-04-01T18:22:59;9.50;99.90
14192;DHT22;7177;48.572;7.838;2023-04-01T18:25:34;9.50;99.90
14192;DHT22;7177;48.572;7.838;2023-04-01T18:34:01;9.60;99.90
14192;DHT22;7177;48.572;7.838;2023-04-01T18:36:43;9.50;99.90
14192;DHT22;7177;48.572;7.838;2023-04-01T18:39:23;9.50;99.90
14192;DHT22;7177;48.572;7.838;2023-04-01T18:42:16;9.50;99.90
14192;DHT22;7177;48.572;7.838;2023-04-01T18:44:51;9.50;99.90
14192;DHT22;7177;48.572;7.838;2023-04-01T18:50:32;9.40;99.90
14192;DHT22;7177;48.572;7.838;2023-04-01T18:53:29;9.40;99.90
14192;DHT22;7177;48.572;7.838;2023-04-01T18:56:05;9.30;99.90
14192;DHT22;7177;48.572;7.838;2023-04-01T18:58:42;9.30;99.90
14192;DHT22;7177;48.572;7.838;2023-04-01T19:01:16;9.30;99.90
14192;DHT22;7177;48.572;7.838;2023-04-01T19:04:00;9.20;99.90
14192;DHT22;7177;48.572;7.838;2023-04-01T19:07:21;9.20;99.90
14192;DHT22;7177;48.572;7.838;2023-04-01T19:09:47;9.10;99.90
14192;DHT22;7177;48.572;7.838;2023-04-01T19:18:02;9.20;99.90
14192;DHT22;7177;48.572;7.838;2023-04-01T19:25:52;9.10;99.90
14192;DHT22;7177;48.572;7.838;2023-04-01T19:28:59;9.10;99.90
14192;DHT22;7177;48.572;7.838;2023-04-01T19:36:45;8.90;99.90
14192;DHT22;7177;48.572;7.838;2023-04-01T19:39:47;8.90;99.90
14192;DHT22;7177;48.572;7.838;2023-04-01T19:42:54;8.90;99.90
14192;DHT22;7177;48.572;7.838;2023-04-01T19:45:26;8.80;99.90
14192;DHT22;7177;48.572;7.838;2023-04-01T19:50:57;8.80;99.90
14192;DHT22;7177;48.572;7.838;2023-04-01T19:53:31;8.70;99.90
14192;DHT22;7177;48.572;7.838;2023-04-01T19:56:16;8.70;99.90
14192;DHT22;7177;48.572;7.838;2023-04-01T19:59:11;8.70;99.90
14192;DHT22;7177;48.572;7.838;2023-04-01T20:07:22;8.60;99.90
14192;DHT22;7177;48.572;7.838;2023-04-01T20:10:06;8.60;99.90
14192;DHT22;7177;48.572;7.838;2023-04-01T20:15:35;8.50;99.90
14192;DHT22;7177;48.572;7.838;2023-04-01T20:18:16;8.50;99.90
14192;DHT22;7177;48.572;7.838;2023-04-01T20:20:56;8.50;99.90
14192;DHT22;7177;48.572;7.838;2023-04-01T20:27:14;8.40;99.90
14192;DHT22;7177;48.572;7.838;2023-04-01T20:35:06;8.40;99.90
14192;DHT22;7177;48.572;7.838;2023-04-01T20:37:46;8.40;99.90
14192;DHT22;7177;48.572;7.838;2023-04-01T20:43:16;8.30;99.90
14192;DHT22;7177;48.572;7.838;2023-04-01T20:45:59;8.30;99.90
14192;DHT22;7177;48.572;7.838;2023-04-01T20:48:45;8.30;99.90
14192;DHT22;7177;48.572;7.838;2023-04-01T20:51:38;8.30;99.90
14192;DHT22;7177;48.572;7.838;2023-04-01T20:57:04;8.30;99.90
14192;DHT22;7177;48.572;7.838;2023-04-01T21:17:10;8.10;99.90
14192;DHT22;7177;48.572;7.838;2023-04-01T21:25:59;8.20;99.90
14192;DHT22;7177;48.572;7.838;2023-04-01T21:31:40;8.20;99.90
14192;DHT22;7177;48.572;7.838;2023-04-01T21:34:31;8.20;99.90
14192;DHT22;7177;48.572;7.838;2023-04-01T22:00:17;8.20;99.90
14192;DHT22;7177;48.572;7.838;2023-04-01T22:05:30;8.20;99.90
14192;DHT22;7177;48.572;7.838;2023-04-01T22:10:41;8.20;99.90
14192;DHT22;7177;48.572;7.838;2023-04-01T22:13:17;8.20;99.90
14192;DHT22;7177;48.572;7.838;2023-04-01T22:16:12;8.10;99.90
14192;DHT22;7177;48.572;7.838;2023-04-01T22:19:37;8.10;99.90
14192;DHT22;7177;48.572;7.838;2023-04-01T22:24:29;8.00;99.90
14192;DHT22;7177;48.572;7.838;2023-04-01T22:32:48;7.90;99.90
14192;DHT22;7177;48.572;7.838;2023-04-01T22:42:56;7.90;99.90
14192;DHT22;7177;48.572;7.838;2023-04-01T22:51:12;8.00;99.90
14192;DHT22;7177;48.572;7.838;2023-04-01T22:54:04;7.90;99.90
14192;DHT22;7177;48.572;7.838;2023-04-01T22:56:37;7.90;99.90
14192;DHT22;7177;48.572;7.838;2023-04-01T22:59:31;7.90;99.90
14192;DHT22;7177;48.572;7.838;2023-04-01T23:02:10;7.90;99.90
14192;DHT22;7177;48.572;7.838;2023-04-01T23:04:43;7.80;99.90
14192;DHT22;7177;48.572;7.838;2023-04-01T23:07:32;7.80;99.90
14192;DHT22;7177;48.572;7.838;2023-04-01T23:10:05;7.90;99.90
14192;DHT22;7177;48.572;7.838;2023-04-01T23:12:36;7.90;99.90
14192;DHT22;7177;48.572;7.838;2023-04-01T23:15:02;7.90;99.90
14192;DHT22;7177;48.572;7.838;2023-04-01T23:20:41;7.90;99.90
14192;DHT22;7177;48.572;7.838;2023-04-01T23:23:28;7.90;99.90
14192;DHT22;7177;48.572;7.838;2023-04-01T23:26:06;7.90;99.90
14192;DHT22;7177;48.572;7.838;2023-04-01T23:28:48;8.00;99.90
14192;DHT22;7177;48.572;7.838;2023-04-01T23:34:34;8.00;99.90
14192;DHT22;7177;48.572;7.838;2023-04-01T23:37:13;8.00;99.90
14192;DHT22;7177;48.572;7.838;2023-04-01T23:39:56;8.00;99.90
14192;DHT22;7177;48.572;7.838;2023-04-01T23:42:30;8.00;99.90
14192;DHT22;7177;48.572;7.838;2023-04-01T23:45:02;8.00;99.90
14192;DHT22;7177;48.572;7.838;2023-04-01T23:47:31;8.00;99.90
14192;DHT22;7177;48.572;7.838;2023-04-01T23:50:01;8.10;99.90
14192;DHT22;7177;48.572;7.838;2023-04-01T23:52:31;8.10;99.90
14192;DHT22;7177;48.572;7.838;2023-04-01T23:57:38;8.10;99.90
